Yuma, AZ

3:28 AM PDT on August 30, 2015 (GMT -0700)
YPG | | Change Station
CLOSE
Current Station
Personal Weather Station
Location: Winterhaven, CA
Elevation: 429 ft
Nearby Weather Stations

Elev 429 ft 32.92 °N, 114.37 °W | Updated 20 minutes ago

Clear
Clear
90 °F
Feels Like 91 °F
N
2
Wind Variable Wind from ESE
Gusts 2.0 mph

Today
High -- | Low -- °F
--% Chance of Precip.
Yesterday
High -- | Low -- °F
Precip. -- in
6:10 AM 7:05 PM
Full, 99% visible
Pressure 29.74 in
Visibility 10.0 miles
Clouds Clear
Heat Index 91 °F
Dew Point 62 °F
Humidity 40%
Rainfall in
Snow Depth Not available.
UV 0 out of 12
Pollen 6.70 out of 12
Air Quality Not available.
Flu Activity Not available.
METAR KNYL 300957Z AUTO 15003KT 10SM CLR 33/19 A2975 RMK AO2 SLP070 T03280189
Pressure 29.74 in
Visibility 10.0 miles
Clouds Clear
Heat Index 91 °F
Dew Point 62 °F
Humidity 40%
Rainfall in
Snow Depth Not available.
UV 0 out of 12
Pollen 6.70 out of 12
Air Quality Not available.
Flu Activity Not available.
METAR KNYL 300957Z AUTO 15003KT 10SM CLR 33/19 A2975 RMK AO2 SLP070 T03280189

10-Day Weather Forecast

×

Almanac

Astronomy

Aug. 30, 2015 Rise Set
Actual Time
Civil Twilight
Nautical Twilight
Astronomical Twilight
Moon
Length of Visible Light
Length of Day
Tomorrow will be .
, % of the Moon is Illuminated

Today's Extremes

State Highs State Lows

Community

WunderPhotos

Upload Photos

1,850,923 photos uploaded!

WunderBlogs® & News

Nearby

Air Quality

  Air Quality AQ Index Pollutant
Not available.

Snow Depth

Station Depth Elevation

Earthquake Activity

City Distance Mag. Time & Date
Minimum magnitude displayed is 2.5.

Coastal Water Temperatures

Place Temperature

Stations

Nearby Weather Stations

Station Location Temp. Windchill Dew Point Humidity Wind Precip. Elev Updated Type